Time;durP1;ratioP1;P1;durP2;ratioP2;P2;SDS_P1;SDS_P2;PMS_P1;PMS_P2;Temp;Humidity;BMP_temperature;BMP_pressure;BME280_temperature;BME280_humidity;BME280_pressure;Samples;Min_cycle;Max_cycle;Signal;HPM_P1;HPM_P2
2024/02/28 00:01:29;;;;;;;13.17;7.20;;;6.20;99.90;;;;;;4995620;28;20488;-67
2024/02/28 00:03:56;;;;;;;17.10;8.00;;;6.10;99.90;;;;;;4995909;28;20455;-66
2024/02/28 00:06:23;;;;;;;17.73;7.20;;;6.10;99.90;;;;;;4995762;28;20453;-67
2024/02/28 00:08:50;;;;;;;14.53;8.70;;;6.10;99.90;;;;;;4995828;28;20539;-66
2024/02/28 00:11:17;;;;;;;16.20;8.80;;;6.10;99.90;;;;;;4997227;28;20448;-66
2024/02/28 00:13:46;;;;;;;18.10;8.50;;;6.00;99.90;;;;;;4996733;28;20485;-67
2024/02/28 00:16:12;;;;;;;15.13;8.53;;;6.10;99.90;;;;;;4996870;28;20478;-67
2024/02/28 00:18:39;;;;;;;17.40;7.57;;;6.10;99.90;;;;;;4997501;28;20520;-67
2024/02/28 00:21:06;;;;;;;19.63;8.40;;;6.10;99.90;;;;;;4996620;28;20506;-67
2024/02/28 00:23:33;;;;;;;21.77;8.60;;;6.10;99.90;;;;;;4994627;28;20488;-66
2024/02/28 00:26:01;;;;;;;15.87;7.73;;;6.10;99.90;;;;;;4995753;28;20450;-67
2024/02/28 00:28:28;;;;;;;21.30;9.60;;;6.00;99.90;;;;;;4978749;28;20472;-68
2024/02/28 00:30:56;;;;;;;16.03;8.50;;;6.10;99.90;;;;;;4977999;28;20538;-67
2024/02/28 00:33:23;;;;;;;20.60;9.27;;;6.10;99.90;;;;;;4977983;28;20537;-67
2024/02/28 00:35:50;;;;;;;19.67;8.73;;;6.10;99.90;;;;;;4977731;28;20483;-66
2024/02/28 00:38:17;;;;;;;20.43;8.20;;;6.00;99.90;;;;;;4978512;28;20568;-67
2024/02/28 00:40:44;;;;;;;12.90;7.97;;;6.00;99.90;;;;;;4978927;28;20471;-67
2024/02/28 00:43:11;;;;;;;18.70;7.93;;;6.10;99.90;;;;;;4978515;28;20444;-67
2024/02/28 00:45:38;;;;;;;18.10;8.40;;;5.90;99.90;;;;;;4978348;28;20457;-67
2024/02/28 00:48:07;;;;;;;19.07;8.60;;;6.00;99.90;;;;;;4976077;28;20446;-67
2024/02/28 00:50:34;;;;;;;17.50;7.77;;;6.00;99.90;;;;;;4975677;28;20843;-66
2024/02/28 00:53:01;;;;;;;13.13;7.13;;;6.00;99.90;;;;;;4975910;28;20478;-67
2024/02/28 00:55:28;;;;;;;17.63;7.50;;;5.80;99.90;;;;;;4976478;28;20479;-67
2024/02/28 00:57:55;;;;;;;20.10;8.00;;;6.10;99.90;;;;;;4976284;28;20482;-67
2024/02/28 01:00:22;;;;;;;20.30;8.30;;;6.10;99.90;;;;;;4974660;28;20570;-66
2024/02/28 01:02:48;;;;;;;15.53;7.73;;;6.00;99.90;;;;;;4975641;28;20443;-66
2024/02/28 01:05:17;;;;;;;15.27;7.70;;;6.10;99.90;;;;;;4977454;28;20534;-67
2024/02/28 01:07:43;;;;;;;13.07;6.17;;;6.10;99.90;;;;;;4976726;28;20566;-68
2024/02/28 01:10:11;;;;;;;17.53;7.60;;;5.90;99.90;;;;;;4975113;28;20462;-67
2024/02/28 01:12:38;;;;;;;14.37;8.03;;;6.00;99.90;;;;;;4975458;28;20453;-67
2024/02/28 01:15:05;;;;;;;18.13;7.03;;;6.00;99.90;;;;;;4976129;28;20497;-68
2024/02/28 01:17:32;;;;;;;33.10;8.67;;;6.00;99.90;;;;;;4976667;28;20971;-67
2024/02/28 01:19:59;;;;;;;15.57;9.73;;;6.00;99.90;;;;;;4976371;28;20491;-67
2024/02/28 01:22:27;;;;;;;22.83;9.37;;;6.00;99.90;;;;;;4976021;28;20864;-66
2024/02/28 01:24:54;;;;;;;17.30;6.37;;;6.10;99.90;;;;;;4976458;28;20460;-66
2024/02/28 01:27:21;;;;;;;15.00;7.50;;;6.10;99.90;;;;;;4974900;28;20542;-66
2024/02/28 01:29:48;;;;;;;16.87;7.10;;;6.10;99.90;;;;;;4973659;28;20573;-67
2024/02/28 01:32:15;;;;;;;16.13;7.37;;;6.10;99.90;;;;;;4973971;28;20501;-67
2024/02/28 01:34:41;;;;;;;22.50;8.83;;;6.10;99.90;;;;;;4974210;28;20446;-67
2024/02/28 01:37:08;;;;;;;18.33;8.50;;;6.10;99.90;;;;;;4974246;28;21011;-67
2024/02/28 01:39:37;;;;;;;19.57;8.27;;;6.10;99.90;;;;;;4973921;28;20511;-67
2024/02/28 01:42:04;;;;;;;14.77;6.77;;;6.10;99.90;;;;;;4973962;28;20444;-67
2024/02/28 01:44:31;;;;;;;10.50;6.57;;;6.20;99.90;;;;;;4974302;28;20534;-67
2024/02/28 01:46:58;;;;;;;19.73;7.57;;;6.10;99.90;;;;;;4974246;28;20537;-67
2024/02/28 01:49:26;;;;;;;19.83;7.50;;;6.10;99.90;;;;;;4973528;28;20464;-67
2024/02/28 01:51:56;;;;;;;19.13;8.27;;;6.10;99.90;;;;;;4974217;28;20811;-66
2024/02/28 01:54:24;;;;;;;26.90;8.83;;;6.10;99.90;;;;;;4973621;28;20538;-67
2024/02/28 01:56:52;;;;;;;17.40;7.63;;;6.00;99.90;;;;;;4973768;28;20481;-67
2024/02/28 01:59:19;;;;;;;13.33;6.97;;;6.00;99.90;;;;;;4973386;28;20486;-66
2024/02/28 02:01:47;;;;;;;19.60;7.73;;;6.00;99.90;;;;;;4973639;28;20447;-67
2024/02/28 02:04:13;;;;;;;17.60;7.90;;;6.00;99.90;;;;;;4974608;28;20483;-67
2024/02/28 02:06:45;;;;;;;15.37;8.83;;;6.00;99.90;;;;;;4974646;28;20461;-67
2024/02/28 02:09:12;;;;;;;21.50;7.33;;;6.00;99.90;;;;;;4974316;28;20495;-66
2024/02/28 02:11:39;;;;;;;15.10;7.30;;;6.00;99.90;;;;;;4974034;28;20455;-67
2024/02/28 02:14:11;;;;;;;20.30;9.20;;;6.00;99.90;;;;;;4974130;28;20549;-67
2024/02/28 02:16:38;;;;;;;21.83;8.90;;;6.00;99.90;;;;;;4973876;28;20467;-67
2024/02/28 02:19:05;;;;;;;19.67;8.00;;;6.00;99.90;;;;;;4973508;28;20479;-67
2024/02/28 02:21:35;;;;;;;18.23;9.07;;;6.00;99.90;;;;;;4973429;28;20535;-67
2024/02/28 02:24:03;;;;;;;15.47;7.73;;;6.00;99.90;;;;;;4973346;28;20964;-67
2024/02/28 02:26:30;;;;;;;16.87;8.13;;;6.00;99.90;;;;;;4973587;28;20453;-66
2024/02/28 02:28:57;;;;;;;21.83;9.67;;;6.00;99.90;;;;;;4973327;28;20521;-67
2024/02/28 02:31:24;;;;;;;17.07;6.83;;;6.00;99.90;;;;;;4973110;28;20546;-67
2024/02/28 02:33:51;;;;;;;17.43;8.67;;;6.00;99.90;;;;;;4973823;28;20450;-67
2024/02/28 02:36:18;;;;;;;11.70;6.13;;;5.90;99.90;;;;;;4973350;28;20481;-66
2024/02/28 02:38:45;;;;;;;13.77;7.70;;;6.00;99.90;;;;;;4973262;28;20505;-67
2024/02/28 02:41:13;;;;;;;17.67;8.60;;;5.90;99.90;;;;;;4972785;28;20542;-67
2024/02/28 02:43:40;;;;;;;15.50;7.90;;;6.10;99.90;;;;;;4973105;28;21037;-67
2024/02/28 02:46:07;;;;;;;25.10;9.13;;;5.90;99.90;;;;;;4973331;28;20451;-67
2024/02/28 02:48:34;;;;;;;17.80;8.07;;;5.90;99.90;;;;;;4973228;28;20443;-66
2024/02/28 02:51:01;;;;;;;15.20;7.50;;;5.90;99.90;;;;;;4972796;28;20621;-67
2024/02/28 02:53:28;;;;;;;15.60;7.37;;;5.90;99.90;;;;;;4973855;28;20485;-67
2024/02/28 02:55:54;;;;;;;12.87;7.03;;;5.90;99.90;;;;;;4982252;28;20670;-67
2024/02/28 02:58:23;;;;;;;12.07;6.60;;;5.90;99.90;;;;;;4973536;28;20450;-66
2024/02/28 03:00:49;;;;;;;12.00;6.50;;;5.90;99.90;;;;;;4972511;28;20599;-67
2024/02/28 03:03:16;;;;;;;12.80;6.30;;;5.90;99.90;;;;;;4973043;28;21010;-67
2024/02/28 03:05:43;;;;;;;12.57;6.67;;;5.90;99.90;;;;;;4973133;28;20522;-66
2024/02/28 03:08:10;;;;;;;13.50;6.57;;;5.90;99.90;;;;;;4972943;28;20510;-66
2024/02/28 03:10:38;;;;;;;14.03;7.33;;;5.90;99.90;;;;;;4972659;28;21042;-67
2024/02/28 03:13:06;;;;;;;14.00;4.80;;;5.90;99.90;;;;;;4972963;28;20774;-67
2024/02/28 03:15:34;;;;;;;7.93;4.60;;;5.80;99.90;;;;;;4972937;28;20454;-67
2024/02/28 03:18:01;;;;;;;9.80;4.10;;;5.80;99.90;;;;;;4972872;28;20613;-67
2024/02/28 03:20:28;;;;;;;10.63;5.13;;;5.80;99.90;;;;;;4972175;28;20577;-66
2024/02/28 03:22:55;;;;;;;9.30;4.77;;;5.80;99.90;;;;;;4974715;28;20521;-67
2024/02/28 03:25:22;;;;;;;11.13;5.87;;;5.70;99.90;;;;;;4976622;28;20533;-67
2024/02/28 03:27:49;;;;;;;16.33;7.30;;;5.70;99.90;;;;;;4976686;28;20475;-67
2024/02/28 03:30:16;;;;;;;12.63;6.17;;;5.80;99.90;;;;;;4976051;28;20459;-67
2024/02/28 03:32:43;;;;;;;12.60;7.00;;;5.70;99.90;;;;;;4976263;28;20963;-67
2024/02/28 03:35:14;;;;;;;14.77;8.30;;;5.70;99.90;;;;;;4976441;28;20883;-67
2024/02/28 03:37:40;;;;;;;13.67;6.43;;;5.60;99.90;;;;;;4976385;28;20479;-67
2024/02/28 03:40:09;;;;;;;12.63;6.17;;;5.60;99.90;;;;;;4976746;28;20580;-65
2024/02/28 03:42:35;;;;;;;15.07;6.53;;;5.60;99.90;;;;;;4976627;28;20784;-67
2024/02/28 03:45:03;;;;;;;15.30;6.30;;;5.60;99.90;;;;;;4976454;28;20475;-67
2024/02/28 03:47:30;;;;;;;11.83;5.83;;;5.60;99.90;;;;;;4976396;28;20456;-66
2024/02/28 03:49:59;;;;;;;11.33;6.53;;;5.60;99.90;;;;;;4976008;28;20505;-67
2024/02/28 03:52:26;;;;;;;10.10;5.83;;;5.60;99.90;;;;;;4976096;28;20450;-66
2024/02/28 03:54:53;;;;;;;9.00;4.83;;;5.60;99.90;;;;;;4976193;28;20967;-66
2024/02/28 03:57:19;;;;;;;14.00;6.90;;;5.60;99.90;;;;;;4976080;28;20854;-68
2024/02/28 03:59:47;;;;;;;11.80;6.47;;;5.50;99.90;;;;;;4975452;28;20573;-67
2024/02/28 04:02:14;;;;;;;11.30;5.90;;;5.50;99.90;;;;;;4976232;28;20499;-66
2024/02/28 04:04:40;;;;;;;9.47;5.13;;;5.60;99.90;;;;;;4976210;28;20549;-67
2024/02/28 04:07:09;;;;;;;8.30;4.97;;;5.60;99.90;;;;;;4975993;28;20443;-66
2024/02/28 04:09:36;;;;;;;10.63;4.93;;;5.60;99.90;;;;;;4976603;28;20546;-67
2024/02/28 04:12:03;;;;;;;9.50;5.20;;;5.40;99.90;;;;;;4977471;28;20527;-67
2024/02/28 04:14:30;;;;;;;9.00;4.07;;;5.60;99.90;;;;;;4979385;28;20979;-67
2024/02/28 04:16:56;;;;;;;8.03;3.20;;;5.70;99.90;;;;;;4978058;28;20442;-67
2024/02/28 04:19:23;;;;;;;8.30;3.30;;;5.60;99.90;;;;;;4977151;28;20996;-66
2024/02/28 04:21:50;;;;;;;7.00;3.70;;;5.60;99.90;;;;;;4976755;28;20534;-67
2024/02/28 04:24:18;;;;;;;8.80;3.73;;;5.60;99.90;;;;;;4975529;28;20458;-67
2024/02/28 04:26:45;;;;;;;6.37;3.67;;;5.60;99.90;;;;;;4975416;28;20485;-67
2024/02/28 04:29:13;;;;;;;10.33;4.40;;;5.70;99.90;;;;;;4975074;28;20557;-67
2024/02/28 04:31:43;;;;;;;6.37;3.03;;;5.70;99.90;;;;;;4975727;28;20501;-68
2024/02/28 04:34:10;;;;;;;8.80;4.07;;;5.60;99.90;;;;;;4974050;28;20939;-67
2024/02/28 04:36:37;;;;;;;8.97;4.60;;;5.60;99.90;;;;;;4975242;28;20483;-67
2024/02/28 04:39:06;;;;;;;8.37;3.90;;;5.70;99.90;;;;;;4975055;28;20462;-66
2024/02/28 04:41:34;;;;;;;6.17;3.70;;;5.70;99.90;;;;;;4975571;28;20458;-67
2024/02/28 04:44:01;;;;;;;10.60;4.30;;;5.70;99.90;;;;;;4975579;28;20479;-66
2024/02/28 04:46:28;;;;;;;7.47;3.63;;;5.70;99.90;;;;;;4975102;28;20450;-67
2024/02/28 04:48:55;;;;;;;6.70;3.50;;;5.70;99.90;;;;;;4975139;28;20863;-67
2024/02/28 04:51:22;;;;;;;7.17;4.17;;;5.70;99.90;;;;;;4974897;28;20443;-67
2024/02/28 04:53:49;;;;;;;7.77;3.90;;;5.70;99.90;;;;;;4974762;28;20479;-67
2024/02/28 04:56:16;;;;;;;7.33;3.97;;;5.50;99.90;;;;;;4975269;28;20868;-67
2024/02/28 04:58:44;;;;;;;7.20;4.23;;;5.50;99.90;;;;;;4976087;28;20554;-66
2024/02/28 05:01:12;;;;;;;11.63;3.60;;;5.60;99.90;;;;;;4977041;28;20526;-67
2024/02/28 05:03:39;;;;;;;10.53;5.10;;;5.60;99.90;;;;;;4979944;28;20438;-66
2024/02/28 05:06:06;;;;;;;8.77;4.43;;;5.60;99.90;;;;;;4978845;28;20545;-66
2024/02/28 05:08:33;;;;;;;6.00;3.87;;;5.60;99.90;;;;;;4977391;28;20444;-67
2024/02/28 05:11:00;;;;;;;5.83;3.40;;;5.60;99.90;;;;;;4977754;28;20550;-67
2024/02/28 05:13:27;;;;;;;9.07;3.37;;;5.60;99.90;;;;;;4975641;28;20533;-67
2024/02/28 05:15:55;;;;;;;6.97;3.60;;;5.50;99.90;;;;;;4975633;28;20457;-67
2024/02/28 05:18:22;;;;;;;8.20;3.93;;;5.50;99.90;;;;;;4976182;28;20477;-66
2024/02/28 05:20:49;;;;;;;5.83;3.40;;;5.40;99.90;;;;;;4975591;28;20497;-67
2024/02/28 05:23:16;;;;;;;6.03;3.60;;;5.40;99.90;;;;;;4975506;28;20482;-67
2024/02/28 05:25:43;;;;;;;7.37;4.07;;;5.30;99.90;;;;;;4975710;28;20531;-66
2024/02/28 05:28:10;;;;;;;6.83;4.00;;;5.30;99.90;;;;;;4976396;28;20530;-68
2024/02/28 05:30:37;;;;;;;7.93;4.30;;;5.40;99.90;;;;;;4974042;28;20505;-67
2024/02/28 05:33:05;;;;;;;6.43;3.50;;;5.30;99.90;;;;;;4974016;28;20486;-67
2024/02/28 05:35:32;;;;;;;5.67;3.30;;;5.10;99.90;;;;;;4974034;28;20574;-66
2024/02/28 05:37:59;;;;;;;7.57;4.27;;;5.20;99.90;;;;;;4973954;28;20456;-66
2024/02/28 05:40:26;;;;;;;7.23;3.50;;;5.20;99.90;;;;;;4973869;28;20578;-66
2024/02/28 05:42:55;;;;;;;5.87;3.40;;;5.30;99.90;;;;;;4974062;28;20521;-67
2024/02/28 05:45:22;;;;;;;8.97;4.10;;;5.30;99.90;;;;;;4973406;28;20448;-67
2024/02/28 05:47:48;;;;;;;9.57;4.27;;;5.30;99.90;;;;;;4973825;28;20492;-66
2024/02/28 05:50:17;;;;;;;6.10;4.40;;;5.30;99.90;;;;;;4973459;28;20530;-67
2024/02/28 05:52:44;;;;;;;6.23;3.33;;;5.40;99.90;;;;;;4973642;28;20510;-66
2024/02/28 05:55:10;;;;;;;6.47;3.63;;;5.40;99.90;;;;;;4973914;28;20526;-67
2024/02/28 05:57:38;;;;;;;8.37;4.10;;;5.40;99.90;;;;;;4973810;28;21018;-67
2024/02/28 06:00:09;;;;;;;7.00;3.10;;;5.40;99.90;;;;;;4973033;28;20581;-67
2024/02/28 06:02:36;;;;;;;6.07;2.93;;;5.50;99.90;;;;;;4974061;28;20529;-66
2024/02/28 06:05:04;;;;;;;6.90;3.50;;;5.40;99.90;;;;;;4973809;28;20502;-67
2024/02/28 06:07:32;;;;;;;5.40;3.20;;;5.40;99.90;;;;;;4973748;28;20459;-66
2024/02/28 06:09:59;;;;;;;8.03;4.93;;;5.40;99.90;;;;;;4973326;28;21047;-67
2024/02/28 06:12:26;;;;;;;8.97;5.37;;;5.30;99.90;;;;;;4974013;28;20451;-67
2024/02/28 06:14:53;;;;;;;15.03;6.50;;;5.40;99.90;;;;;;4973815;28;20451;-66
2024/02/28 06:17:21;;;;;;;17.00;6.97;;;5.40;99.90;;;;;;4973771;28;20506;-67
2024/02/28 06:19:48;;;;;;;18.47;7.80;;;5.40;99.90;;;;;;4973455;28;20463;-67
2024/02/28 06:22:15;;;;;;;14.77;7.30;;;5.40;99.90;;;;;;4974074;28;20634;-67
2024/02/28 06:24:43;;;;;;;11.73;6.73;;;5.40;99.90;;;;;;4974014;28;20488;-67
2024/02/28 06:27:12;;;;;;;15.70;8.03;;;5.40;99.90;;;;;;4973881;28;20449;-66
2024/02/28 06:29:39;;;;;;;16.70;8.47;;;5.40;99.90;;;;;;4977086;28;20557;-67
2024/02/28 06:32:06;;;;;;;14.43;7.93;;;5.40;99.90;;;;;;4974590;28;20477;-66
2024/02/28 06:34:33;;;;;;;12.97;6.90;;;5.40;99.90;;;;;;4973827;28;20534;-67
2024/02/28 06:37:00;;;;;;;16.13;7.77;;;5.30;99.90;;;;;;4992185;28;20528;-67
2024/02/28 06:39:27;;;;;;;17.83;7.47;;;5.30;99.90;;;;;;4977315;28;20494;-67
2024/02/28 06:41:55;;;;;;;12.07;8.03;;;5.30;99.90;;;;;;4989093;28;20820;-66
2024/02/28 06:44:22;;;;;;;14.50;7.10;;;5.30;99.90;;;;;;4992069;28;20567;-67
2024/02/28 06:46:49;;;;;;;14.63;8.30;;;5.30;99.90;;;;;;4993480;28;20951;-66
2024/02/28 06:49:16;;;;;;;13.60;7.90;;;5.20;99.90;;;;;;4993299;28;20480;-67
2024/02/28 06:51:44;;;;;;;15.10;9.07;;;5.20;99.90;;;;;;4993109;28;20950;-67
2024/02/28 06:54:11;;;;;;;18.30;7.43;;;5.30;99.90;;;;;;4977591;28;20524;-67
2024/02/28 06:56:38;;;;;;;14.40;7.27;;;5.30;99.90;;;;;;4973539;28;20447;-67
2024/02/28 06:59:06;;;;;;;19.43;7.53;;;5.30;99.90;;;;;;4993354;28;20472;-67
2024/02/28 07:01:33;;;;;;;16.07;8.43;;;5.30;99.90;;;;;;4997050;28;20895;-67
2024/02/28 07:04:00;;;;;;;17.23;8.53;;;5.30;99.90;;;;;;4993389;28;20531;-66
2024/02/28 07:06:27;;;;;;;12.27;5.87;;;5.30;99.90;;;;;;4996669;28;20496;-67
2024/02/28 07:08:54;;;;;;;14.00;8.07;;;5.10;99.90;;;;;;4997755;28;20507;-67
2024/02/28 07:11:22;;;;;;;11.23;6.43;;;5.10;99.90;;;;;;4997016;28;20438;-66
2024/02/28 07:13:47;;;;;;;10.30;5.43;;;5.10;99.90;;;;;;4996844;28;20454;-67
2024/02/28 07:16:16;;;;;;;13.90;6.63;;;5.10;99.90;;;;;;4992819;28;20430;-67
2024/02/28 07:18:43;;;;;;;8.87;5.70;;;5.10;99.90;;;;;;4997199;28;20196;-56
2024/02/28 07:21:10;;;;;;;15.03;7.13;;;5.20;99.90;;;;;;4995113;28;20480;-53
2024/02/28 07:23:39;;;;;;;12.73;6.03;;;5.20;99.90;;;;;;4995753;28;21001;-55
2024/02/28 07:26:06;;;;;;;12.13;6.17;;;5.10;99.90;;;;;;4993091;28;20548;-53
2024/02/28 07:28:33;;;;;;;12.10;6.20;;;5.20;99.90;;;;;;4995100;28;20480;-56
2024/02/28 07:31:00;;;;;;;10.63;6.00;;;5.20;99.90;;;;;;4994921;28;20564;-50
2024/02/28 07:33:28;;;;;;;9.03;5.47;;;5.20;99.90;;;;;;4992983;28;20470;-54
2024/02/28 07:35:56;;;;;;;11.00;6.47;;;5.20;99.90;;;;;;4993117;28;20531;-56
2024/02/28 07:38:27;;;;;;;13.73;7.00;;;5.40;99.90;;;;;;4995507;28;20438;-51
2024/02/28 07:40:54;;;;;;;10.73;5.80;;;5.40;99.90;;;;;;4989997;28;20563;-57
2024/02/28 07:43:21;;;;;;;9.43;5.73;;;5.40;99.90;;;;;;4991200;28;20525;-67
2024/02/28 07:45:48;;;;;;;12.80;6.47;;;5.50;99.90;;;;;;4995407;28;20446;-66
2024/02/28 07:48:17;;;;;;;10.80;4.93;;;5.50;99.90;;;;;;4995037;28;20474;-66
2024/02/28 07:50:45;;;;;;;10.10;5.40;;;5.50;99.90;;;;;;4994789;28;20529;-66
2024/02/28 07:53:12;;;;;;;10.93;5.67;;;5.40;99.90;;;;;;4995640;28;20536;-65
2024/02/28 07:55:40;;;;;;;12.10;5.90;;;5.30;99.90;;;;;;4995529;28;20448;-66
2024/02/28 07:58:07;;;;;;;9.87;5.87;;;5.30;99.90;;;;;;4995208;28;20543;-66
2024/02/28 08:00:34;;;;;;;7.37;4.20;;;5.40;99.90;;;;;;4995056;28;20490;-68
2024/02/28 08:03:01;;;;;;;7.83;4.80;;;5.30;99.90;;;;;;4995129;28;20449;-67
2024/02/28 08:05:27;;;;;;;6.90;4.40;;;5.30;99.90;;;;;;4995318;28;20478;-66
2024/02/28 08:07:56;;;;;;;11.40;5.60;;;5.20;99.90;;;;;;4994945;28;20477;-67
2024/02/28 08:10:23;;;;;;;9.00;5.33;;;5.10;99.90;;;;;;4994863;28;20538;-66
2024/02/28 08:12:50;;;;;;;8.73;4.60;;;5.10;99.90;;;;;;4995237;28;20459;-67
2024/02/28 08:15:17;;;;;;;10.90;5.73;;;5.10;99.90;;;;;;4994599;28;20450;-66
2024/02/28 08:17:44;;;;;;;11.50;7.13;;;5.00;99.90;;;;;;4995122;28;20439;-66
2024/02/28 08:20:11;;;;;;;16.17;7.17;;;5.10;99.90;;;;;;4994019;28;20461;-68
2024/02/28 08:22:38;;;;;;;14.37;7.13;;;4.90;99.90;;;;;;4994684;28;20518;-66
2024/02/28 08:25:10;;;;;;;11.30;7.00;;;4.90;99.90;;;;;;4994752;28;20484;-65
2024/02/28 08:27:38;;;;;;;13.60;8.03;;;4.90;99.90;;;;;;4994589;28;20891;-66
2024/02/28 08:30:06;;;;;;;9.93;6.43;;;4.80;99.90;;;;;;4993943;28;20501;-66
2024/02/28 08:32:33;;;;;;;9.60;6.10;;;5.40;99.90;;;;;;4994717;28;20950;-66
2024/02/28 08:35:00;;;;;;;10.90;5.90;;;4.80;99.90;;;;;;4994634;28;20451;-67
2024/02/28 08:37:28;;;;;;;8.57;5.43;;;4.80;99.90;;;;;;4994554;28;20536;-68
2024/02/28 08:39:57;;;;;;;9.53;4.70;;;4.80;99.90;;;;;;4994126;28;20545;-66
2024/02/28 08:42:26;;;;;;;10.07;5.43;;;4.70;99.90;;;;;;4994365;28;20490;-66
2024/02/28 08:44:54;;;;;;;8.63;4.00;;;4.70;99.90;;;;;;4994654;28;20441;-66
2024/02/28 08:47:26;;;;;;;10.77;5.97;;;4.70;99.90;;;;;;4994126;28;20452;-65
2024/02/28 08:49:54;;;;;;;14.13;7.90;;;4.60;99.90;;;;;;4994199;28;20466;-67
2024/02/28 08:52:22;;;;;;;8.63;5.40;;;4.60;99.90;;;;;;4994287;28;20889;-65
2024/02/28 08:54:49;;;;;;;11.20;5.67;;;4.70;99.90;;;;;;4993637;28;20478;-65
2024/02/28 08:57:16;;;;;;;7.33;4.40;;;4.80;99.90;;;;;;4992105;28;20523;-66
2024/02/28 08:59:44;;;;;;;5.73;3.83;;;4.70;99.90;;;;;;4997356;28;20473;-65
2024/02/28 09:02:12;;;;;;;6.77;3.90;;;4.70;99.90;;;;;;4998195;28;20858;-67
2024/02/28 09:04:38;;;;;;;5.90;3.30;;;4.70;99.90;;;;;;4998876;28;20537;-65
2024/02/28 09:07:05;;;;;;;8.90;3.87;;;4.70;99.90;;;;;;4998360;28;20472;-65
2024/02/28 09:09:37;;;;;;;9.17;4.20;;;4.70;99.90;;;;;;4998425;28;20524;-66
2024/02/28 09:12:04;;;;;;;6.60;3.73;;;4.60;99.90;;;;;;4999364;28;20464;-66
2024/02/28 09:14:31;;;;;;;10.00;4.67;;;4.70;99.90;;;;;;4992219;28;20485;-65
2024/02/28 09:17:03;;;;;;;8.93;5.37;;;4.80;99.90;;;;;;4993819;28;20527;-65
2024/02/28 09:19:30;;;;;;;11.50;6.73;;;4.90;99.90;;;;;;4993284;28;20465;-66
2024/02/28 09:21:57;;;;;;;9.23;4.47;;;4.90;99.90;;;;;;4993789;28;21001;-66
2024/02/28 09:24:24;;;;;;;8.97;5.43;;;4.80;99.90;;;;;;4994018;28;20532;-67
2024/02/28 09:26:51;;;;;;;12.77;4.97;;;4.80;99.90;;;;;;4993780;28;20446;-64
2024/02/28 09:29:18;;;;;;;17.57;7.43;;;4.70;99.90;;;;;;4993165;28;20492;-65
2024/02/28 09:31:44;;;;;;;15.20;7.10;;;4.60;99.90;;;;;;4993622;28;20445;-64
2024/02/28 09:34:13;;;;;;;14.00;7.13;;;4.60;99.90;;;;;;4990072;28;20531;-65
2024/02/28 09:36:45;;;;;;;13.50;7.50;;;4.70;99.90;;;;;;4993152;28;20445;-64
2024/02/28 09:39:12;;;;;;;13.53;6.40;;;4.60;99.90;;;;;;4993375;28;20472;-65
2024/02/28 09:41:39;;;;;;;11.93;5.80;;;4.70;99.90;;;;;;4995884;28;21007;-65
2024/02/28 09:44:07;;;;;;;16.13;6.80;;;4.80;99.90;;;;;;4996275;28;20470;-67
2024/02/28 09:46:35;;;;;;;14.97;6.17;;;4.70;99.90;;;;;;4996953;28;20433;-66
2024/02/28 09:49:04;;;;;;;13.63;7.53;;;4.80;99.90;;;;;;4994713;28;20779;-68
2024/02/28 09:51:35;;;;;;;12.40;7.00;;;4.90;99.90;;;;;;4996491;28;20943;-65
2024/02/28 09:54:02;;;;;;;10.27;5.57;;;4.90;99.90;;;;;;4997124;28;20443;-67
2024/02/28 09:56:29;;;;;;;18.53;7.17;;;4.90;99.90;;;;;;4999983;28;20452;-67
2024/02/28 09:58:56;;;;;;;13.27;6.67;;;4.90;99.90;;;;;;4993931;28;20438;-67
2024/02/28 10:01:24;;;;;;;18.33;8.10;;;4.80;99.90;;;;;;4993152;28;20470;-67
2024/02/28 10:03:53;;;;;;;11.53;7.53;;;4.80;99.90;;;;;;4993804;28;20557;-67
2024/02/28 10:06:19;;;;;;;15.70;6.40;;;4.80;99.90;;;;;;4991232;28;20481;-65
2024/02/28 10:08:48;;;;;;;18.73;5.97;;;4.80;99.90;;;;;;4991396;28;21013;-65
2024/02/28 10:11:20;;;;;;;19.63;9.17;;;6.40;99.90;;;;;;4993636;28;20984;-65
2024/02/28 10:13:47;;;;;;;18.80;8.63;;;6.50;99.90;;;;;;4992909;28;20438;-67
2024/02/28 10:16:15;;;;;;;14.13;7.87;;;6.10;99.90;;;;;;4993939;28;20532;-65
2024/02/28 10:18:43;;;;;;;15.97;9.10;;;6.00;99.90;;;;;;4994325;28;20531;-67
2024/02/28 10:21:12;;;;;;;21.97;8.63;;;5.80;99.90;;;;;;4991097;28;20463;-66
2024/02/28 10:23:39;;;;;;;12.47;7.10;;;5.60;99.90;;;;;;4995857;28;20449;-67
2024/02/28 10:26:10;;;;;;;15.80;7.40;;;5.60;99.90;;;;;;4997085;28;20445;-66
2024/02/28 10:28:38;;;;;;;17.93;9.13;;;5.40;99.90;;;;;;4996728;28;20476;-66
2024/02/28 10:31:05;;;;;;;19.43;8.23;;;5.30;99.90;;;;;;4993636;28;20855;-65
2024/02/28 10:33:33;;;;;;;21.30;10.60;;;5.30;99.90;;;;;;4992970;28;20449;-67
2024/02/28 10:36:00;;;;;;;22.33;10.40;;;5.40;99.90;;;;;;4987689;28;20449;-65
2024/02/28 10:38:28;;;;;;;20.30;9.50;;;5.30;99.90;;;;;;4992889;28;20445;-65
2024/02/28 10:40:56;;;;;;;19.97;8.90;;;5.20;99.90;;;;;;4992132;28;20460;-66
2024/02/28 10:43:26;;;;;;;15.67;8.60;;;5.10;99.90;;;;;;4992590;28;20512;-66
2024/02/28 10:45:56;;;;;;;15.70;8.47;;;5.20;99.90;;;;;;4992271;28;20435;-67
2024/02/28 10:48:23;;;;;;;27.80;10.70;;;5.30;99.90;;;;;;4992270;28;20450;-68
2024/02/28 10:50:54;;;;;;;24.80;13.23;;;5.20;99.90;;;;;;4985755;28;20497;-65
2024/02/28 10:53:23;;;;;;;22.43;9.90;;;5.20;99.90;;;;;;4990876;28;20508;-66
2024/02/28 10:55:52;;;;;;;18.07;8.23;;;5.10;99.90;;;;;;4986742;28;20443;-67
2024/02/28 10:58:21;;;;;;;17.40;9.17;;;5.00;99.90;;;;;;4989336;28;20450;-67
2024/02/28 11:00:51;;;;;;;19.70;9.17;;;4.90;99.90;;;;;;4991494;28;21027;-66
2024/02/28 11:03:19;;;;;;;23.73;11.47;;;4.90;99.90;;;;;;4992152;28;20496;-65
2024/02/28 11:05:47;;;;;;;19.10;9.73;;;4.90;99.90;;;;;;4992163;28;20449;-65
2024/02/28 11:08:23;;;;;;;18.43;10.83;;;4.90;99.90;;;;;;4989426;28;20445;-66
2024/02/28 11:18:37;;;;;;;14.50;9.27;;;5.90;99.90;;;;;;5121790;23;20213;-60
2024/02/28 11:26:43;;;;;;;14.37;7.37;;;5.70;99.90;;;;;;5124111;23;20484;-59
2024/02/28 11:29:11;;;;;;;17.30;9.20;;;5.60;99.90;;;;;;5006987;28;20834;-60
2024/02/28 11:31:40;;;;;;;18.00;10.10;;;5.50;99.90;;;;;;5003498;28;20808;-59
2024/02/28 11:34:09;;;;;;;18.80;9.20;;;5.40;99.90;;;;;;4979660;28;20513;-58
2024/02/28 11:36:39;;;;;;;19.60;9.60;;;5.30;99.90;;;;;;5008888;23;20488;-61
2024/02/28 11:39:07;;;;;;;16.53;9.97;;;5.30;99.90;;;;;;5010947;28;20954;-62
2024/02/28 11:41:34;;;;;;;16.50;8.07;;;5.40;99.90;;;;;;5009647;28;20502;-63
2024/02/28 11:44:01;;;;;;;16.13;8.93;;;5.50;99.90;;;;;;4995965;28;20519;-63
2024/02/28 11:46:28;;;;;;;18.23;9.40;;;5.50;99.90;;;;;;4997377;28;20912;-63
2024/02/28 11:48:55;;;;;;;14.50;7.77;;;5.40;99.90;;;;;;4995643;28;20525;-63
2024/02/28 11:51:23;;;;;;;25.53;10.20;;;5.40;99.90;;;;;;4995331;28;20453;-65
2024/02/28 11:53:50;;;;;;;19.50;9.63;;;5.30;99.90;;;;;;4994583;28;20548;-62
2024/02/28 11:56:21;;;;;;;15.50;9.33;;;5.30;99.90;;;;;;4994857;28;20453;-62
2024/02/28 11:58:51;;;;;;;12.80;7.83;;;5.40;99.90;;;;;;4994971;28;20507;-62
2024/02/28 12:01:18;;;;;;;18.03;9.00;;;5.30;99.90;;;;;;4994669;28;20481;-61
2024/02/28 12:03:46;;;;;;;17.43;8.80;;;5.30;99.90;;;;;;4994156;28;20579;-63
2024/02/28 12:06:13;;;;;;;13.97;8.40;;;5.30;99.90;;;;;;4994491;28;20815;-61
2024/02/28 12:08:42;;;;;;;16.23;8.77;;;5.40;99.90;;;;;;4994062;28;20469;-61
2024/02/28 12:11:10;;;;;;;16.70;9.77;;;5.40;99.90;;;;;;4994327;28;20447;-62
2024/02/28 12:13:38;;;;;;;17.93;10.07;;;5.50;99.90;;;;;;4993961;28;20469;-63
2024/02/28 12:16:05;;;;;;;14.47;7.40;;;5.60;99.90;;;;;;4994206;28;20466;-61
2024/02/28 12:18:32;;;;;;;18.47;8.30;;;5.70;99.90;;;;;;4994210;28;20453;-62
2024/02/28 12:20:59;;;;;;;12.17;7.30;;;5.70;99.90;;;;;;4988738;28;20510;-62
2024/02/28 12:23:26;;;;;;;16.43;7.40;;;5.80;99.90;;;;;;4994221;28;20572;-61
2024/02/28 12:25:54;;;;;;;15.77;8.10;;;5.80;99.90;;;;;;4992956;28;20504;-63
2024/02/28 12:28:21;;;;;;;15.03;8.90;;;6.30;99.90;;;;;;4994023;28;20534;-64
2024/02/28 12:30:48;;;;;;;16.90;8.97;;;6.30;99.90;;;;;;4993953;28;20485;-64
2024/02/28 12:33:15;;;;;;;13.60;8.90;;;6.40;99.90;;;;;;4993609;28;21067;-61
2024/02/28 12:35:42;;;;;;;12.30;7.77;;;6.30;99.90;;;;;;4993807;28;20872;-64
2024/02/28 12:38:09;;;;;;;11.80;7.00;;;6.40;99.90;;;;;;4993763;28;20454;-61
2024/02/28 12:40:36;;;;;;;19.40;9.93;;;6.40;99.90;;;;;;4991746;28;20447;-61
2024/02/28 12:43:05;;;;;;;22.10;8.37;;;6.30;99.90;;;;;;4993268;28;20571;-60
2024/02/28 12:45:32;;;;;;;13.37;7.47;;;6.30;99.90;;;;;;4993921;28;20517;-61
2024/02/28 12:48:00;;;;;;;15.07;8.23;;;6.30;99.90;;;;;;4993470;28;20446;-60
2024/02/28 12:50:27;;;;;;;10.60;6.87;;;6.30;99.90;;;;;;4993937;28;20520;-63
2024/02/28 12:52:54;;;;;;;13.00;7.37;;;6.30;99.90;;;;;;4993705;28;20473;-63
2024/02/28 12:55:22;;;;;;;11.37;6.00;;;6.10;99.90;;;;;;4994973;28;21194;-62
2024/02/28 12:57:49;;;;;;;8.97;5.63;;;6.20;99.90;;;;;;4995415;28;20543;-60
2024/02/28 13:00:18;;;;;;;13.90;6.43;;;6.20;99.90;;;;;;4993619;28;20449;-64
2024/02/28 13:02:45;;;;;;;12.33;6.83;;;6.20;99.90;;;;;;4993137;28;20489;-61